createdAt,value
2022-10-19T00:01:23.156Z,9.40
2022-10-19T00:03:55.650Z,10.43
2022-10-19T00:06:31.564Z,10.03
2022-10-19T00:09:19.514Z,11.10
2022-10-19T00:11:50.894Z,10.37
2022-10-19T00:14:23.972Z,10.17
2022-10-19T00:16:53.155Z,10.30
2022-10-19T00:19:26.766Z,10.10
2022-10-19T00:21:54.401Z,10.50
2022-10-19T00:24:22.118Z,9.30
2022-10-19T00:26:49.000Z,7.40
2022-10-19T00:29:17.637Z,7.60
2022-10-19T00:31:44.494Z,7.37
2022-10-19T00:34:11.835Z,6.70
2022-10-19T00:36:41.403Z,7.60
2022-10-19T00:39:14.738Z,7.30
2022-10-19T00:41:44.938Z,7.50
2022-10-19T00:44:11.671Z,7.97
2022-10-19T00:46:49.855Z,8.90
2022-10-19T00:49:33.775Z,7.83
2022-10-19T00:52:17.563Z,7.17
2022-10-19T00:54:50.200Z,6.97
2022-10-19T00:57:18.234Z,9.07
2022-10-19T00:59:47.231Z,8.20
2022-10-19T01:04:55.941Z,7.30
2022-10-19T01:07:25.437Z,7.10
2022-10-19T01:09:54.379Z,6.80
2022-10-19T01:13:19.523Z,7.40
2022-10-19T01:16:14.517Z,6.30
2022-10-19T01:19:31.355Z,6.10
2022-10-19T01:22:50.473Z,8.20
2022-10-19T01:26:06.023Z,6.30
2022-10-19T01:29:31.768Z,6.50
2022-10-19T01:32:16.217Z,6.40
2022-10-19T01:35:07.747Z,4.87
2022-10-19T01:37:55.292Z,5.20
2022-10-19T01:40:55.808Z,6.50
2022-10-19T01:43:45.166Z,6.37
2022-10-19T01:46:36.214Z,6.13
2022-10-19T01:49:25.101Z,5.67
2022-10-19T01:52:04.215Z,5.17
2022-10-19T01:54:42.621Z,5.40
2022-10-19T01:57:17.283Z,5.00
2022-10-19T01:59:47.588Z,5.40
2022-10-19T02:02:18.112Z,4.80
2022-10-19T02:04:48.441Z,5.73
2022-10-19T02:07:17.300Z,5.60
2022-10-19T02:09:44.264Z,5.17
2022-10-19T02:12:13.120Z,4.60
2022-10-19T02:14:52.254Z,5.10
2022-10-19T02:17:30.705Z,7.00
2022-10-19T02:19:59.523Z,5.60
2022-10-19T02:22:26.504Z,4.37
2022-10-19T02:24:53.413Z,4.83
2022-10-19T02:27:20.608Z,4.23
2022-10-19T02:29:47.590Z,4.90
2022-10-19T02:32:15.068Z,4.80
2022-10-19T02:34:42.572Z,4.80
2022-10-19T02:37:09.813Z,5.07
2022-10-19T02:39:39.478Z,5.50
2022-10-19T02:42:24.821Z,5.60
2022-10-19T02:45:21.077Z,5.03
2022-10-19T02:48:07.033Z,5.00
2022-10-19T02:50:34.277Z,5.30
2022-10-19T02:53:01.527Z,5.73
2022-10-19T02:55:31.135Z,5.07
2022-10-19T02:57:58.095Z,4.40
2022-10-19T03:00:25.137Z,5.07
2022-10-19T03:02:52.046Z,3.77
2022-10-19T03:05:19.033Z,4.03
2022-10-19T03:07:46.018Z,3.43
2022-10-19T03:10:12.925Z,3.47
2022-10-19T03:12:39.781Z,4.07
2022-10-19T03:15:07.758Z,3.23
2022-10-19T03:17:35.880Z,4.00
2022-10-19T03:20:04.274Z,2.80
2022-10-19T03:22:31.204Z,3.30
2022-10-19T03:24:58.062Z,3.27
2022-10-19T03:27:25.082Z,5.23
2022-10-19T03:29:51.918Z,2.93
2022-10-19T03:32:18.890Z,3.03
2022-10-19T03:34:45.791Z,2.97
2022-10-19T03:37:14.991Z,3.13
2022-10-19T03:39:41.824Z,3.53
2022-10-19T03:42:08.655Z,2.90
2022-10-19T03:44:35.486Z,2.80
2022-10-19T03:47:02.334Z,3.00
2022-10-19T03:49:29.226Z,3.10
2022-10-19T03:51:56.047Z,4.40
2022-10-19T03:54:26.493Z,4.80
2022-10-19T03:56:54.395Z,4.30
2022-10-19T03:59:21.676Z,3.90
2022-10-19T04:01:48.571Z,4.43
2022-10-19T04:04:19.291Z,4.67
2022-10-19T04:06:50.019Z,4.80
2022-10-19T04:09:21.040Z,4.60
2022-10-19T04:11:49.592Z,4.10
2022-10-19T04:14:31.764Z,5.03
2022-10-19T04:17:06.196Z,3.40
2022-10-19T04:19:33.025Z,3.33
2022-10-19T04:22:00.067Z,3.53
2022-10-19T04:24:27.131Z,3.60
2022-10-19T04:26:56.439Z,3.67
2022-10-19T04:29:29.614Z,4.17
2022-10-19T04:31:58.808Z,4.20
2022-10-19T04:34:25.711Z,4.47
2022-10-19T04:36:53.820Z,3.37
2022-10-19T04:39:20.717Z,4.10
2022-10-19T04:41:47.556Z,3.80
2022-10-19T04:44:15.344Z,3.90
2022-10-19T04:46:42.261Z,4.03
2022-10-19T04:49:09.105Z,4.00
2022-10-19T04:51:35.937Z,2.80
2022-10-19T04:54:04.752Z,4.20
2022-10-19T04:56:32.248Z,3.20
2022-10-19T04:59:01.312Z,3.67
2022-10-19T05:01:31.644Z,3.53
2022-10-19T05:04:02.794Z,3.80
2022-10-19T05:06:31.637Z,3.70
2022-10-19T05:08:59.858Z,3.93
2022-10-19T05:11:27.632Z,4.00
2022-10-19T05:13:56.622Z,4.97
2022-10-19T05:16:24.930Z,4.10
2022-10-19T05:19:01.936Z,6.60
2022-10-19T05:21:29.358Z,5.37
2022-10-19T05:23:57.573Z,3.10
2022-10-19T05:26:27.840Z,3.20
2022-10-19T05:29:04.313Z,2.90
2022-10-19T05:31:34.673Z,13.10
2022-10-19T05:34:03.816Z,9.30
2022-10-19T05:36:38.815Z,5.50
2022-10-19T05:39:13.086Z,4.30
2022-10-19T05:41:41.734Z,3.23
2022-10-19T05:44:17.683Z,4.87
2022-10-19T05:46:45.270Z,3.53
2022-10-19T05:49:14.353Z,4.50
2022-10-19T05:51:43.265Z,5.13
2022-10-19T05:54:12.854Z,4.17
2022-10-19T05:56:41.747Z,5.60
2022-10-19T05:59:16.829Z,7.57
2022-10-19T06:01:45.095Z,6.03
2022-10-19T06:04:13.909Z,5.20
2022-10-19T06:06:43.306Z,5.90
2022-10-19T06:09:11.222Z,6.57
2022-10-19T06:11:41.829Z,5.60
2022-10-19T06:14:15.286Z,3.37
2022-10-19T06:16:43.094Z,5.13
2022-10-19T06:19:09.942Z,4.60
2022-10-19T06:21:38.609Z,4.63
2022-10-19T06:24:07.182Z,4.13
2022-10-19T06:26:35.684Z,4.30
2022-10-19T06:29:04.614Z,6.03
2022-10-19T06:31:36.221Z,4.13
2022-10-19T06:34:03.767Z,4.40
2022-10-19T06:36:32.875Z,3.80
2022-10-19T06:39:01.850Z,6.30
2022-10-19T06:41:30.699Z,7.60
2022-10-19T06:43:58.140Z,4.27
2022-10-19T06:46:28.206Z,8.73
2022-10-19T06:49:00.235Z,9.70
2022-10-19T06:51:30.865Z,5.40
2022-10-19T06:53:58.028Z,4.40
2022-10-19T06:56:27.082Z,3.97
2022-10-19T06:58:54.902Z,4.83
2022-10-19T07:01:23.371Z,5.03
2022-10-19T07:03:53.551Z,4.70
2022-10-19T07:06:23.688Z,5.37
2022-10-19T07:08:52.656Z,4.10
2022-10-19T07:11:22.287Z,6.10
2022-10-19T07:13:49.650Z,6.37
2022-10-19T07:16:21.287Z,6.90
2022-10-19T07:18:52.028Z,7.50
2022-10-19T07:21:23.105Z,6.63
2022-10-19T07:23:50.607Z,5.50
2022-10-19T07:26:27.423Z,6.23
2022-10-19T07:28:57.483Z,5.90
2022-10-19T07:31:28.452Z,5.83
2022-10-19T07:33:59.727Z,5.50
2022-10-19T07:36:30.543Z,5.80
2022-10-19T07:38:58.163Z,5.83
2022-10-19T07:41:27.039Z,6.50
2022-10-19T07:43:55.019Z,5.50
2022-10-19T07:46:28.968Z,5.83
2022-10-19T07:48:56.224Z,5.30
2022-10-19T07:51:23.640Z,5.90
2022-10-19T07:53:50.684Z,4.90
2022-10-19T07:56:24.595Z,4.90
2022-10-19T07:58:55.773Z,5.17
2022-10-19T08:06:51.266Z,2.90
2022-10-19T08:09:39.989Z,4.30
2022-10-19T08:12:06.947Z,4.17
2022-10-19T08:14:34.296Z,4.07
2022-10-19T08:17:01.954Z,4.53
2022-10-19T08:19:29.153Z,3.70
2022-10-19T08:21:56.035Z,4.17
2022-10-19T08:24:22.912Z,3.30
2022-10-19T08:26:51.253Z,4.10
2022-10-19T08:29:21.405Z,5.43
2022-10-19T08:31:50.057Z,4.83
2022-10-19T08:34:17.684Z,4.70
2022-10-19T08:36:45.658Z,4.20
2022-10-19T08:39:14.306Z,4.80
2022-10-19T08:41:41.169Z,4.40
2022-10-19T08:44:46.745Z,4.30
2022-10-19T08:47:46.748Z,4.63
2022-10-19T08:50:24.304Z,4.17
2022-10-19T08:53:18.229Z,3.80
2022-10-19T08:56:49.305Z,3.60
2022-10-19T08:59:42.604Z,3.80
2022-10-19T09:02:54.246Z,4.70
2022-10-19T09:06:22.413Z,4.20
2022-10-19T09:08:54.645Z,4.50
2022-10-19T09:11:31.161Z,4.47
2022-10-19T09:14:47.485Z,4.70
2022-10-19T09:17:19.702Z,4.60
2022-10-19T09:19:46.647Z,4.20
2022-10-19T09:22:34.867Z,3.43
2022-10-19T09:25:19.690Z,4.37
2022-10-19T09:28:06.429Z,4.00
2022-10-19T09:30:40.318Z,4.40
2022-10-19T09:33:26.746Z,4.40
2022-10-19T09:35:59.544Z,4.70
2022-10-19T09:38:29.274Z,4.50
2022-10-19T09:41:05.539Z,5.93
2022-10-19T09:43:32.706Z,5.37
2022-10-19T09:46:36.185Z,6.27
2022-10-19T09:49:05.777Z,5.60
2022-10-19T09:51:52.539Z,4.93
2022-10-19T09:54:39.479Z,5.80
2022-10-19T09:57:06.389Z,5.13
2022-10-19T09:59:37.286Z,5.63
2022-10-19T10:02:21.682Z,5.40
2022-10-19T10:05:06.362Z,6.13
2022-10-19T10:07:39.374Z,5.80
2022-10-19T10:10:38.270Z,5.20
2022-10-19T10:13:06.360Z,5.43
2022-10-19T10:15:49.159Z,5.70
2022-10-19T10:18:19.179Z,6.70
2022-10-19T10:21:00.289Z,5.23
2022-10-19T10:23:36.186Z,5.70
2022-10-19T10:26:15.670Z,6.10
2022-10-19T10:28:50.982Z,5.57
2022-10-19T10:31:29.586Z,5.60
2022-10-19T10:34:10.977Z,5.00
2022-10-19T10:36:54.575Z,5.50
2022-10-19T10:39:24.694Z,5.60
2022-10-19T10:41:52.009Z,5.10
2022-10-19T10:44:29.660Z,6.80
2022-10-19T10:47:05.683Z,6.13
2022-10-19T10:49:42.391Z,6.23
2022-10-19T10:52:19.877Z,7.30
2022-10-19T10:55:18.622Z,7.57
2022-10-19T10:57:57.334Z,6.47
2022-10-19T11:00:24.808Z,6.33
2022-10-19T11:03:26.441Z,6.97
2022-10-19T11:06:02.506Z,7.07
2022-10-19T11:09:03.086Z,6.17
2022-10-19T11:11:43.108Z,7.70
2022-10-19T11:14:56.311Z,8.23
2022-10-19T11:17:36.566Z,7.13
2022-10-19T11:20:13.660Z,7.40
2022-10-19T11:23:15.750Z,6.73
2022-10-19T11:26:43.084Z,7.03
2022-10-19T11:30:00.988Z,6.77
2022-10-19T11:32:46.093Z,6.90
2022-10-19T11:35:26.349Z,6.40
2022-10-19T11:38:33.453Z,6.40
2022-10-19T11:41:38.161Z,7.20
2022-10-19T11:44:19.678Z,6.00
2022-10-19T11:47:29.597Z,5.97
2022-10-19T11:50:58.780Z,6.40
2022-10-19T11:53:53.429Z,7.33
2022-10-19T11:57:02.480Z,6.40
2022-10-19T12:00:15.259Z,6.30
2022-10-19T12:03:15.529Z,6.17
2022-10-19T12:06:17.913Z,6.70
2022-10-19T12:09:54.177Z,7.00
2022-10-19T12:12:38.733Z,7.00
2022-10-19T12:15:26.109Z,7.00
2022-10-19T12:18:03.517Z,6.73
2022-10-19T12:20:49.517Z,6.20
2022-10-19T12:23:46.634Z,6.07
2022-10-19T12:26:21.874Z,6.90
2022-10-19T12:29:03.042Z,6.57
2022-10-19T12:31:31.435Z,7.13
2022-10-19T12:34:35.294Z,7.27
2022-10-19T12:37:50.066Z,7.67
2022-10-19T12:40:56.284Z,6.30
2022-10-19T12:43:55.830Z,6.30
2022-10-19T12:46:49.912Z,7.83
2022-10-19T12:49:26.597Z,6.87
2022-10-19T12:51:56.957Z,5.67
2022-10-19T12:54:33.910Z,5.47
2022-10-19T12:57:22.752Z,6.00
2022-10-19T13:00:06.823Z,5.27
2022-10-19T13:02:39.545Z,5.47
2022-10-19T13:05:06.858Z,6.30
2022-10-19T13:07:36.723Z,4.37
2022-10-19T13:10:16.882Z,5.20
2022-10-19T13:12:47.612Z,5.50
2022-10-19T13:15:51.637Z,5.40
2022-10-19T13:19:12.894Z,6.07
2022-10-19T13:22:00.972Z,5.50
2022-10-19T13:24:27.785Z,5.40
2022-10-19T13:27:03.912Z,5.40
2022-10-19T13:29:44.597Z,5.73
2022-10-19T13:32:51.766Z,5.33
2022-10-19T13:35:34.276Z,5.07
2022-10-19T13:38:11.459Z,5.73
2022-10-19T13:40:55.087Z,4.63
2022-10-19T13:43:38.408Z,5.40
2022-10-19T13:46:07.773Z,5.37
2022-10-19T13:49:27.726Z,4.93
2022-10-19T13:52:51.135Z,4.90
2022-10-19T13:56:09.016Z,5.30
2022-10-19T13:59:36.696Z,5.30
2022-10-19T14:03:13.808Z,4.83
2022-10-19T14:06:27.509Z,4.63
2022-10-19T14:09:42.344Z,4.50
2022-10-19T14:12:30.955Z,5.00
2022-10-19T14:14:58.261Z,4.73
2022-10-19T14:17:33.900Z,5.13
2022-10-19T14:20:02.036Z,4.30
2022-10-19T14:22:38.512Z,4.47
2022-10-19T14:25:27.339Z,4.73
2022-10-19T14:28:06.740Z,4.37
2022-10-19T14:30:36.647Z,4.77
2022-10-19T14:33:14.485Z,4.63
2022-10-19T14:35:49.944Z,5.03
2022-10-19T14:38:35.546Z,5.77
2022-10-19T14:41:06.094Z,4.80
2022-10-19T14:43:35.217Z,5.43
2022-10-19T14:46:08.027Z,5.40
2022-10-19T14:48:40.441Z,4.90
2022-10-19T14:51:35.249Z,5.77
2022-10-19T14:54:37.856Z,4.87
2022-10-19T14:57:19.141Z,5.17
2022-10-19T14:59:52.969Z,5.50
2022-10-19T15:02:47.020Z,5.80
2022-10-19T15:05:27.963Z,5.80
2022-10-19T15:07:55.793Z,5.53
2022-10-19T15:10:37.748Z,5.60
2022-10-19T15:13:07.429Z,5.83
2022-10-19T15:15:36.237Z,5.80
2022-10-19T15:18:06.171Z,5.43
2022-10-19T15:20:49.315Z,5.37
2022-10-19T15:23:52.921Z,5.80
2022-10-19T15:26:29.321Z,5.70
2022-10-19T15:29:28.953Z,5.23
2022-10-19T15:31:58.809Z,5.30
2022-10-19T15:34:30.593Z,5.70
2022-10-19T15:37:01.396Z,5.67
2022-10-19T15:39:41.142Z,5.20
2022-10-19T15:42:45.386Z,5.77
2022-10-19T15:45:38.529Z,4.60
2022-10-19T15:48:40.253Z,5.60
2022-10-19T15:51:26.985Z,5.00
2022-10-19T15:53:59.493Z,5.70
2022-10-19T15:56:31.675Z,9.40
2022-10-19T15:59:03.810Z,9.73
2022-10-19T16:01:34.251Z,7.97
2022-10-19T16:04:01.630Z,8.30
2022-10-19T16:06:33.777Z,9.90
2022-10-19T16:09:02.437Z,9.07
2022-10-19T16:11:34.418Z,7.93
2022-10-19T16:14:01.508Z,8.37
2022-10-19T16:16:32.887Z,8.77
2022-10-19T16:19:01.155Z,7.93
2022-10-19T16:21:34.147Z,8.03
2022-10-19T16:24:01.531Z,8.20
2022-10-19T16:26:29.317Z,8.03
2022-10-19T16:28:56.570Z,8.67
2022-10-19T16:31:24.317Z,8.73
2022-10-19T16:33:51.637Z,10.73
2022-10-19T16:36:20.289Z,9.27
2022-10-19T16:38:48.454Z,8.10
2022-10-19T16:41:16.155Z,8.87
2022-10-19T16:43:43.759Z,9.40
2022-10-19T16:46:11.078Z,8.57
2022-10-19T16:48:38.195Z,8.43
2022-10-19T16:51:10.131Z,9.03
2022-10-19T16:53:38.428Z,8.67
2022-10-19T16:56:13.660Z,9.40
2022-10-19T16:58:41.225Z,10.23
2022-10-19T17:01:17.853Z,8.93
2022-10-19T17:03:48.075Z,10.83
2022-10-19T17:06:18.127Z,10.30
2022-10-19T17:11:38.296Z,10.30
2022-10-19T17:14:12.592Z,9.30
2022-10-19T17:16:40.732Z,10.10
2022-10-19T17:19:10.662Z,9.67
2022-10-19T17:21:39.108Z,9.73
2022-10-19T17:24:16.971Z,9.80
2022-10-19T17:26:47.256Z,10.10
2022-10-19T17:29:15.271Z,9.93
2022-10-19T17:31:43.576Z,10.77
2022-10-19T17:34:11.635Z,10.63
2022-10-19T17:36:46.169Z,9.63
2022-10-19T17:39:27.458Z,9.40
2022-10-19T17:42:01.609Z,9.20
2022-10-19T17:44:31.117Z,9.30
2022-10-19T17:46:59.767Z,8.73
2022-10-19T17:49:26.900Z,9.90
2022-10-19T17:51:53.731Z,9.00
2022-10-19T17:54:20.760Z,10.30
2022-10-19T17:56:47.689Z,10.10
2022-10-19T17:59:14.677Z,10.30
2022-10-19T18:01:41.976Z,10.20
2022-10-19T18:04:08.845Z,10.03
2022-10-19T18:06:38.366Z,9.27
2022-10-19T18:09:09.504Z,8.63
2022-10-19T18:11:43.496Z,8.63
2022-10-19T18:14:12.977Z,9.20
2022-10-19T18:16:46.428Z,8.07
2022-10-19T18:19:16.648Z,10.47
2022-10-19T18:21:46.639Z,9.50
2022-10-19T18:24:19.965Z,9.63
2022-10-19T18:26:51.115Z,8.50
2022-10-19T18:29:25.153Z,9.13
2022-10-19T18:31:52.808Z,9.40
2022-10-19T18:34:24.545Z,8.73
2022-10-19T18:36:52.256Z,8.87
2022-10-19T18:39:19.325Z,8.43
2022-10-19T18:41:46.265Z,9.20
2022-10-19T18:44:14.200Z,8.90
2022-10-19T18:46:41.646Z,8.87
2022-10-19T18:49:11.030Z,8.03
2022-10-19T18:51:38.329Z,7.50
2022-10-19T18:54:05.633Z,8.60
2022-10-19T18:56:36.427Z,8.33
2022-10-19T18:59:05.322Z,8.37
2022-10-19T19:01:32.907Z,8.93
2022-10-19T19:04:09.206Z,8.47
2022-10-19T19:06:39.042Z,9.43
2022-10-19T19:09:11.538Z,8.77
2022-10-19T19:11:40.977Z,9.10
2022-10-19T19:14:20.867Z,9.17
2022-10-19T19:16:48.023Z,9.00
2022-10-19T19:19:18.774Z,9.73
2022-10-19T19:21:46.102Z,10.37
2022-10-19T19:24:21.937Z,9.70
2022-10-19T19:26:54.654Z,8.87
2022-10-19T19:29:22.494Z,8.30
2022-10-19T19:31:50.366Z,9.00
2022-10-19T19:34:18.017Z,8.60
2022-10-19T19:36:48.863Z,8.40
2022-10-19T19:39:20.020Z,8.07
2022-10-19T19:41:49.517Z,8.60
2022-10-19T19:44:17.480Z,9.20
2022-10-19T19:46:44.518Z,8.80
2022-10-19T19:49:11.897Z,7.80
2022-10-19T19:51:38.779Z,9.00
2022-10-19T19:54:05.811Z,9.23
2022-10-19T19:56:33.123Z,8.77
2022-10-19T19:59:03.416Z,10.33
2022-10-19T20:01:31.662Z,10.10
2022-10-19T20:04:00.298Z,10.43
2022-10-19T20:06:27.181Z,11.67
2022-10-19T20:08:56.334Z,10.03
2022-10-19T20:11:27.951Z,10.20
2022-10-19T20:13:56.112Z,10.50
2022-10-19T20:16:31.923Z,9.90
2022-10-19T20:19:13.984Z,9.87
2022-10-19T20:21:42.172Z,10.73
2022-10-19T20:24:10.056Z,10.10
2022-10-19T20:26:37.068Z,10.67
2022-10-19T20:29:05.541Z,10.60
2022-10-19T20:31:38.656Z,10.93
2022-10-19T20:34:10.708Z,10.90
2022-10-19T20:36:37.775Z,10.03
2022-10-19T20:39:04.676Z,10.00
2022-10-19T20:41:31.600Z,11.57
2022-10-19T20:43:58.504Z,9.90
2022-10-19T20:46:30.681Z,10.60
2022-10-19T20:49:01.532Z,10.10
2022-10-19T20:51:36.615Z,10.23
2022-10-19T20:54:12.149Z,9.47
2022-10-19T20:56:42.027Z,9.73
2022-10-19T20:59:20.119Z,10.40
2022-10-19T21:01:51.941Z,9.00
2022-10-19T21:04:19.542Z,10.83
2022-10-19T21:06:51.228Z,10.23
2022-10-19T21:09:23.606Z,9.83
2022-10-19T21:11:52.097Z,11.67
2022-10-19T21:14:27.238Z,10.17
2022-10-19T21:16:58.566Z,10.43
2022-10-19T21:19:29.192Z,11.27
2022-10-19T21:22:06.051Z,10.20
2022-10-19T21:24:36.564Z,10.27
2022-10-19T21:27:09.239Z,9.90
2022-10-19T21:29:37.683Z,10.00
2022-10-19T21:32:04.634Z,9.90
2022-10-19T21:34:32.748Z,10.43
2022-10-19T21:36:59.794Z,10.77
2022-10-19T21:39:26.824Z,9.70
2022-10-19T21:41:53.717Z,9.33
2022-10-19T21:44:22.899Z,10.10
2022-10-19T21:46:50.717Z,10.90
2022-10-19T21:49:18.086Z,9.10
2022-10-19T21:51:54.388Z,8.83
2022-10-19T21:54:25.266Z,9.03
2022-10-19T21:56:54.961Z,9.53
2022-10-19T21:59:22.065Z,9.57
2022-10-19T22:01:48.966Z,10.10
2022-10-19T22:04:18.370Z,8.97
2022-10-19T22:06:46.062Z,9.27
2022-10-19T22:09:21.565Z,9.30
2022-10-19T22:11:49.209Z,8.70
2022-10-19T22:14:17.276Z,10.20
2022-10-19T22:16:44.830Z,8.93
2022-10-19T22:19:13.261Z,9.27
2022-10-19T22:21:40.932Z,8.13
2022-10-19T22:24:15.526Z,8.50
2022-10-19T22:26:50.504Z,9.30
2022-10-19T22:29:17.959Z,8.07
2022-10-19T22:31:44.923Z,9.43
2022-10-19T22:34:17.776Z,8.93
2022-10-19T22:36:45.561Z,8.17
2022-10-19T22:39:13.966Z,8.60
2022-10-19T22:41:40.829Z,8.80
2022-10-19T22:44:07.766Z,8.73
2022-10-19T22:46:34.797Z,9.77
2022-10-19T22:49:01.795Z,9.50
2022-10-19T22:51:28.773Z,9.60
2022-10-19T22:53:55.699Z,10.37
2022-10-19T22:56:22.666Z,9.10
2022-10-19T22:58:49.665Z,8.87
2022-10-19T23:01:16.990Z,9.07
2022-10-19T23:03:44.272Z,9.60
2022-10-19T23:06:15.462Z,9.50
2022-10-19T23:08:44.725Z,9.77
2022-10-19T23:11:12.795Z,8.80
2022-10-19T23:13:41.303Z,9.00
2022-10-19T23:16:09.483Z,9.13
2022-10-19T23:18:40.467Z,9.33
2022-10-19T23:21:13.581Z,9.97
2022-10-19T23:23:42.019Z,9.00
2022-10-19T23:26:17.706Z,8.77
2022-10-19T23:28:49.667Z,8.50
2022-10-19T23:31:24.421Z,10.20
2022-10-19T23:33:53.887Z,8.27
2022-10-19T23:36:28.607Z,10.07
2022-10-19T23:38:57.495Z,9.13
2022-10-19T23:41:25.255Z,9.23
2022-10-19T23:43:52.824Z,8.60
2022-10-19T23:46:20.019Z,9.10
2022-10-19T23:48:46.973Z,10.37
2022-10-19T23:51:21.155Z,9.10
2022-10-19T23:53:51.299Z,10.40
2022-10-19T23:56:28.599Z,8.80
2022-10-19T23:58:56.801Z,9.43
